Time;durP1;ratioP1;P1;durP2;ratioP2;P2;SDS_P1;SDS_P2;PMS_P1;PMS_P2;Temp;Humidity;BMP_temperature;BMP_pressure;BME280_temperature;BME280_humidity;BME280_pressure;Samples;Min_cycle;Max_cycle;Signal;HPM_P1;HPM_P2
2023/04/09 00:00:17;;;;;;;;;;;;;;;24.38;44.71;97236.44;619549;229;67237;-61
2023/04/09 00:02:44;;;;;;;;;;;;;;;24.38;45.02;97241.80;619575;229;66822;-61
2023/04/09 00:05:13;;;;;;;;;;;;;;;24.37;43.16;97240.22;619486;229;62895;-61
2023/04/09 00:07:40;;;;;;;;;;;;;;;24.38;44.46;97247.17;620039;229;67361;-61
2023/04/09 00:10:08;;;;;;;;;;;;;;;24.37;45.66;97244.80;615034;228;64620;-61
2023/04/09 00:12:36;;;;;;;;;;;;;;;24.37;44.90;97244.80;620893;228;65086;-61
2023/04/09 00:15:04;;;;;;;;;;;;;;;24.36;44.88;97240.49;617917;228;67394;-61
2023/04/09 00:17:31;;;;;;;;;;;;;;;24.35;43.78;97244.27;618879;229;67366;-63
2023/04/09 00:19:59;;;;;;;;;;;;;;;24.35;44.62;97244.27;619375;227;65030;-61
2023/04/09 00:22:26;;;;;;;;;;;;;;;24.33;44.77;97241.07;619967;228;64986;-61
2023/04/09 00:24:54;;;;;;;;;;;;;;;24.33;45.73;97239.17;620458;228;64872;-61
2023/04/09 00:27:21;;;;;;;;;;;;;;;24.32;47.47;97242.16;620324;228;65037;-61
2023/04/09 00:29:49;;;;;;;;;;;;;;;24.30;45.92;97242.44;619412;229;67247;-61
2023/04/09 00:32:16;;;;;;;;;;;;;;;24.32;44.48;97244.85;618945;229;66990;-65
2023/04/09 00:34:44;;;;;;;;;;;;;;;24.29;44.42;97240.85;618923;229;63804;-65
2023/04/09 00:37:12;;;;;;;;;;;;;;;24.29;45.94;97245.43;619732;229;66988;-65
2023/04/09 00:39:40;;;;;;;;;;;;;;;24.28;44.68;97241.95;619492;229;64925;-61
2023/04/09 00:42:07;;;;;;;;;;;;;;;24.28;44.98;97243.81;619770;228;65040;-61
2023/04/09 00:44:35;;;;;;;;;;;;;;;24.28;44.68;97243.81;621826;227;67501;-61
2023/04/09 00:47:02;;;;;;;;;;;;;;;24.28;44.36;97243.81;622115;227;67105;-61
2023/04/09 00:49:30;;;;;;;;;;;;;;;24.27;45.94;97244.91;621011;228;64898;-61
2023/04/09 00:51:58;;;;;;;;;;;;;;;24.26;44.47;97246.01;621806;227;64782;-61
2023/04/09 00:54:25;;;;;;;;;;;;;;;24.25;44.87;97239.81;621766;228;64920;-61
2023/04/09 00:56:53;;;;;;;;;;;;;;;24.25;44.28;97247.07;622226;228;62739;-61
2023/04/09 00:59:21;;;;;;;;;;;;;;;24.24;44.07;97240.11;621299;228;64504;-61
2023/04/09 01:01:48;;;;;;;;;;;;;;;24.24;45.17;97242.80;620206;227;64795;-61
2023/04/09 01:04:16;;;;;;;;;;;;;;;24.24;45.78;97242.80;620480;228;62557;-61
2023/04/09 01:06:51;;;;;;;;;;;;;;;24.21;43.88;97238.80;621636;227;64600;-61
2023/04/09 01:09:20;;;;;;;;;;;;;;;24.21;46.99;97235.32;620347;227;66591;-61
2023/04/09 01:11:49;;;;;;;;;;;;;;;24.20;44.44;97241.76;621420;228;65397;-62
2023/04/09 01:14:22;;;;;;;;;;;;;;;24.19;46.54;97238.28;620363;228;66944;-62
2023/04/09 01:16:51;;;;;;;;;;;;;;;24.18;43.26;97243.95;621577;227;67251;-62
2023/04/09 01:19:20;;;;;;;;;;;;;;;24.18;44.47;97233.21;621734;228;63792;-61
2023/04/09 01:21:48;;;;;;;;;;;;;;;24.18;45.86;97233.21;616185;227;64373;-62
2023/04/09 01:24:17;;;;;;;;;;;;;;;24.16;42.19;97236.17;620385;228;67213;-61
2023/04/09 01:26:58;;;;;;;;;;;;;;;24.16;44.26;97241.53;620648;228;65083;-62
2023/04/09 01:29:29;;;;;;;;;;;;;;;24.15;44.28;97246.11;619919;227;44592;-62
2023/04/09 01:31:57;;;;;;;;;;;;;;;24.15;45.20;97245.32;619403;229;64794;-62
2023/04/09 01:34:26;;;;;;;;;;;;;;;24.13;44.48;97237.53;619932;228;65221;-62
2023/04/09 01:36:54;;;;;;;;;;;;;;;24.13;46.13;97248.28;619466;229;67226;-62
2023/04/09 01:39:22;;;;;;;;;;;;;;;24.12;46.55;97241.32;619975;228;67032;-62
2023/04/09 01:41:50;;;;;;;;;;;;;;;24.11;43.28;97239.70;619978;229;64924;-66
2023/04/09 01:44:19;;;;;;;;;;;;;;;24.10;45.65;97238.11;619451;229;67276;-62
2023/04/09 01:46:49;;;;;;;;;;;;;;;24.11;45.58;97239.70;619564;229;66845;-62
2023/04/09 01:49:17;;;;;;;;;;;;;;;24.10;43.89;97231.95;619937;229;63738;-62
2023/04/09 01:51:45;;;;;;;;;;;;;;;24.09;43.18;97233.84;622039;227;67161;-63
2023/04/09 01:54:13;;;;;;;;;;;;;;;24.08;45.33;97234.11;619601;229;66955;-62
2023/04/09 01:56:44;;;;;;;;;;;;;;;24.07;46.50;97222.58;619722;229;62522;-62
2023/04/09 01:59:12;;;;;;;;;;;;;;;24.08;45.13;97239.48;620138;229;65217;-62
2023/04/09 02:01:46;;;;;;;;;;;;;;;24.09;45.51;97230.33;619585;229;67040;-62
2023/04/09 02:04:15;;;;;;;;;;;;;;;24.07;42.84;97235.20;619857;228;65100;-61
2023/04/09 02:06:48;;;;;;;;;;;;;;;24.06;45.97;97230.91;620865;228;67234;-61
2023/04/09 02:09:16;;;;;;;;;;;;;;;24.05;46.12;97227.42;621428;227;67127;-61
2023/04/09 02:11:46;;;;;;;;;;;;;;;24.04;44.17;97233.89;619730;228;63859;-61
2023/04/09 02:14:15;;;;;;;;;;;;;;;24.04;47.05;97225.84;619439;229;67382;-61
2023/04/09 02:16:42;;;;;;;;;;;;;;;24.03;44.45;97234.16;619636;229;64766;-61
2023/04/09 02:19:10;;;;;;;;;;;;;;;24.02;45.95;97232.58;621232;228;65744;-65
2023/04/09 02:21:38;;;;;;;;;;;;;;;24.02;45.26;97229.89;619946;228;67097;-65
2023/04/09 02:24:07;;;;;;;;;;;;;;;24.01;45.94;97231.78;617168;228;67096;-65
2023/04/09 02:26:35;;;;;;;;;;;;;;;24.00;42.78;97232.84;620714;228;65039;-65
2023/04/09 02:29:02;;;;;;;;;;;;;;;24.00;43.61;97227.48;619866;228;67255;-65
2023/04/09 02:31:30;;;;;;;;;;;;;;;24.00;46.13;97227.48;620120;229;66414;-65
2023/04/09 02:33:57;;;;;;;;;;;;;;;23.98;43.26;97223.48;619986;229;65002;-65
2023/04/09 02:36:26;;;;;;;;;;;;;;;23.98;44.42;97224.30;619432;229;65090;-65
2023/04/09 02:38:55;;;;;;;;;;;;;;;23.98;45.65;97224.30;619485;229;64252;-65
2023/04/09 02:41:23;;;;;;;;;;;;;;;23.98;46.12;97231.53;621094;228;65680;-65
2023/04/09 02:43:51;;;;;;;;;;;;;;;23.96;41.63;97228.35;619695;228;64602;-62
2023/04/09 02:46:19;;;;;;;;;;;;;;;23.97;45.62;97228.05;620296;228;67713;-61
2023/04/09 02:48:47;;;;;;;;;;;;;;;23.96;45.78;97223.78;619847;228;62435;-61
2023/04/09 02:51:14;;;;;;;;;;;;;;;23.94;45.04;97223.26;621080;228;65603;-61
2023/04/09 02:53:42;;;;;;;;;;;;;;;23.94;44.65;97228.63;619758;228;67653;-61
2023/04/09 02:56:09;;;;;;;;;;;;;;;23.93;44.84;97224.35;619776;228;65241;-61
2023/04/09 02:58:37;;;;;;;;;;;;;;;23.92;46.13;97231.58;620112;229;67165;-61
2023/04/09 03:01:05;;;;;;;;;;;;;;;23.91;44.53;97227.31;621142;228;67525;-61
2023/04/09 03:03:32;;;;;;;;;;;;;;;23.91;46.04;97224.63;622160;227;65068;-61
2023/04/09 03:06:01;;;;;;;;;;;;;;;;;;621483;228;45099;-61
2023/04/09 03:08:28;;;;;;;;;;;;;;;23.91;47.41;97237.25;619388;228;64990;-61
2023/04/09 03:10:55;;;;;;;;;;;;;;;23.89;43.84;97234.84;619514;229;64986;-61
2023/04/09 03:13:23;;;;;;;;;;;;;;;23.90;46.80;97232.98;619991;229;67549;-61
2023/04/09 03:15:53;;;;;;;;;;;;;;;23.88;45.91;97235.94;619923;229;64754;-61
2023/04/09 03:18:21;;;;;;;;;;;;;;;23.88;46.84;97237.83;620264;228;64816;-66
2023/04/09 03:20:48;;;;;;;;;;;;;;;23.88;47.03;97243.98;621512;227;64863;-66
2023/04/09 03:23:16;;;;;;;;;;;;;;;23.87;46.73;97238.89;620380;228;67495;-66
2023/04/09 03:25:45;;;;;;;;;;;;;;;23.87;46.01;97249.63;620133;228;43418;-65
2023/04/09 03:28:14;;;;;;;;;;;;;;;23.85;43.82;97241.08;619969;228;43722;-65
2023/04/09 03:30:44;;;;;;;;;;;;;;;23.84;44.76;97240.25;622440;227;45453;-65
2023/04/09 03:33:12;;;;;;;;;;;;;;;23.84;45.12;97247.52;622238;228;65471;-65
2023/04/09 03:35:42;;;;;;;;;;;;;;;23.83;43.71;97245.92;621235;228;44258;-66
2023/04/09 03:38:10;;;;;;;;;;;;;;;23.83;46.93;97254.77;614399;227;64500;-65
2023/04/09 03:40:38;;;;;;;;;;;;;;;23.83;47.72;97245.92;619831;228;62991;-65
2023/04/09 03:43:05;;;;;;;;;;;;;;;23.82;48.24;97255.86;621596;228;67674;-66
2023/04/09 03:45:33;;;;;;;;;;;;;;;23.81;45.73;97254.24;621618;227;64542;-65
2023/04/09 03:48:03;;;;;;;;;;;;;;;23.81;46.24;97253.45;620670;227;47009;-65
2023/04/09 03:50:31;;;;;;;;;;;;;;;23.79;44.77;97252.92;615791;228;68344;-65
2023/04/09 03:52:58;;;;;;;;;;;;;;;23.79;44.23;97258.30;620522;228;66659;-65
2023/04/09 03:55:26;;;;;;;;;;;;;;;23.78;44.37;97262.86;621012;228;65086;-65
2023/04/09 03:57:55;;;;;;;;;;;;;;;23.79;44.21;97258.30;619465;229;67254;-65
2023/04/09 04:00:24;;;;;;;;;;;;;;;23.77;42.24;97260.48;620376;228;44479;-66
2023/04/09 04:02:53;;;;;;;;;;;;;;;23.77;45.72;97265.84;621879;227;42456;-66
2023/04/09 04:05:25;;;;;;;;;;;;;;;23.77;47.45;97269.33;621597;228;45566;-66
2023/04/09 04:07:52;;;;;;;;;;;;;;;23.77;45.05;97276.58;621971;228;65810;-66
2023/04/09 04:10:22;;;;;;;;;;;;;;;23.76;47.66;97277.64;621256;228;42598;-66
2023/04/09 04:12:49;;;;;;;;;;;;;;;23.75;47.96;97268.80;621518;227;67700;-66
2023/04/09 04:15:24;;;;;;;;;;;;;;;23.74;45.79;97271.78;621804;227;48725;-66
2023/04/09 04:17:54;;;;;;;;;;;;;;;23.74;45.81;97275.27;621580;228;43402;-66
2023/04/09 04:20:24;;;;;;;;;;;;;;;23.72;44.41;97269.37;621386;228;46468;-66
2023/04/09 04:22:56;;;;;;;;;;;;;;;23.72;45.19;97269.37;621450;227;45809;-66
2023/04/09 04:25:23;;;;;;;;;;;;;;;23.73;46.48;97275.53;621489;227;65824;-62
2023/04/09 04:27:51;;;;;;;;;;;;;;;23.72;45.53;97279.30;622065;227;67279;-62
2023/04/09 04:30:20;;;;;;;;;;;;;;;23.70;43.82;97277.66;621102;227;67146;-62
2023/04/09 04:32:52;;;;;;;;;;;;;;;23.68;43.56;97279.84;621543;228;43775;-62
2023/04/09 04:35:21;;;;;;;;;;;;;;;23.69;46.58;97276.06;621624;228;67213;-63
2023/04/09 04:37:50;;;;;;;;;;;;;;;23.68;44.19;97281.70;621592;228;41746;-63
2023/04/09 04:40:18;;;;;;;;;;;;;;;23.68;46.84;97284.38;621613;228;65107;-63
2023/04/09 04:42:47;;;;;;;;;;;;;;;23.66;45.31;97284.69;621635;228;67792;-62
2023/04/09 04:45:15;;;;;;;;;;;;;;;23.65;45.44;97280.41;621663;228;65545;-63
2023/04/09 04:47:44;;;;;;;;;;;;;;;23.65;45.85;97285.77;621144;228;46324;-62
2023/04/09 04:50:12;;;;;;;;;;;;;;;23.64;46.00;97289.52;620639;228;67199;-63
2023/04/09 04:52:44;;;;;;;;;;;;;;;23.63;45.92;97285.25;621316;227;44247;-62
2023/04/09 04:55:12;;;;;;;;;;;;;;;23.63;46.26;97289.82;621735;228;65797;-62
2023/04/09 04:57:40;;;;;;;;;;;;;;;23.63;45.96;97289.82;622081;227;67313;-62
2023/04/09 05:00:09;;;;;;;;;;;;;;;23.62;47.59;97286.31;621650;228;67040;-62
2023/04/09 05:02:37;;;;;;;;;;;;;;;23.60;46.09;97285.81;621473;228;65203;-62
2023/04/09 05:05:06;;;;;;;;;;;;;;;23.60;46.26;97288.50;620486;227;48316;-62
2023/04/09 05:07:35;;;;;;;;;;;;;;;23.60;46.00;97287.67;622096;228;44877;-62
2023/04/09 05:10:05;;;;;;;;;;;;;;;23.59;45.50;97286.08;622236;228;64983;-62
2023/04/09 05:12:34;;;;;;;;;;;;;;;23.58;44.68;97287.97;622050;228;43635;-62
2023/04/09 05:15:02;;;;;;;;;;;;;;;23.58;47.71;97290.66;621966;228;67503;-62
2023/04/09 05:17:30;;;;;;;;;;;;;;;23.57;46.36;97294.43;621800;228;65886;-62
2023/04/09 05:19:58;;;;;;;;;;;;;;;23.57;47.73;97283.70;622135;228;64717;-66
2023/04/09 05:22:27;;;;;;;;;;;;;;;23.56;46.91;97292.81;621511;228;47935;-66
2023/04/09 05:24:54;;;;;;;;;;;;;;;23.56;48.07;97287.45;621996;228;63727;-66
2023/04/09 05:27:24;;;;;;;;;;;;;;;23.55;46.94;97288.53;621877;228;67395;-66
2023/04/09 05:29:53;;;;;;;;;;;;;;;23.54;44.67;97286.13;621526;228;44225;-66
2023/04/09 05:32:21;;;;;;;;;;;;;;;23.54;47.61;97289.59;621681;228;62871;-62
2023/04/09 05:34:49;;;;;;;;;;;;;;;23.53;46.88;97284.53;621656;228;67336;-62
2023/04/09 05:37:17;;;;;;;;;;;;;;;23.52;45.57;97291.78;621128;228;66883;-62
2023/04/09 05:39:46;;;;;;;;;;;;;;;23.52;48.28;97291.78;621589;227;42500;-62
2023/04/09 05:42:14;;;;;;;;;;;;;;;23.53;49.47;97295.27;621643;228;64782;-62
2023/04/09 05:44:46;;;;;;;;;;;;;;;23.51;46.41;97292.84;619976;228;48094;-62
2023/04/09 05:47:16;;;;;;;;;;;;;;;23.51;47.00;97298.20;621665;228;43797;-62
2023/04/09 05:49:45;;;;;;;;;;;;;;;23.50;46.82;97293.94;621906;228;43423;-62
2023/04/09 05:52:20;;;;;;;;;;;;;;;23.48;45.55;97296.89;622190;227;67455;-62
2023/04/09 05:54:44;;;;;;;;;;;;;;;23.49;46.51;97292.34;621558;228;65098;-62
2023/04/09 05:57:14;;;;;;;;;;;;;;;23.48;45.26;97288.05;621568;228;65714;-66
2023/04/09 05:59:43;;;;;;;;;;;;;;;23.48;47.10;97293.41;621509;228;45799;-66
2023/04/09 06:02:12;;;;;;;;;;;;;;;23.47;46.25;97286.45;621634;227;41403;-66
2023/04/09 06:04:40;;;;;;;;;;;;;;;23.46;46.92;97287.52;621427;228;65709;-66
2023/04/09 06:07:09;;;;;;;;;;;;;;;23.46;47.13;97290.20;621413;227;65680;-66
2023/04/09 06:09:37;;;;;;;;;;;;;;;23.45;47.42;97296.66;622090;228;65088;-66
2023/04/09 06:12:04;;;;;;;;;;;;;;;23.45;49.20;97288.61;621777;227;65008;-66
2023/04/09 06:14:32;;;;;;;;;;;;;;;23.44;48.38;97287.02;621628;228;64799;-66
2023/04/09 06:17:01;;;;;;;;;;;;;;;23.43;47.19;97294.23;621549;227;62743;-66
2023/04/09 06:19:29;;;;;;;;;;;;;;;23.43;48.26;97296.13;621703;228;67158;-66
2023/04/09 06:21:56;;;;;;;;;;;;;;;23.42;46.77;97289.97;621722;228;66573;-66
2023/04/09 06:24:24;;;;;;;;;;;;;;;23.43;47.95;97291.56;621960;227;64890;-66
2023/04/09 06:26:51;;;;;;;;;;;;;;;23.42;47.44;97286.48;621310;227;66919;-66
2023/04/09 06:29:19;;;;;;;;;;;;;;;23.42;46.88;97286.48;621633;228;67050;-66
2023/04/09 06:31:47;;;;;;;;;;;;;;;23.43;47.68;97288.08;621641;228;62834;-66
2023/04/09 06:34:14;;;;;;;;;;;;;;;23.42;47.82;97286.48;619335;227;66941;-66
2023/04/09 06:36:43;;;;;;;;;;;;;;;23.41;48.49;97288.37;621624;228;66960;-66
2023/04/09 06:39:10;;;;;;;;;;;;;;;23.41;48.73;97279.53;621650;228;65079;-66
2023/04/09 06:41:41;;;;;;;;;;;;;;;23.41;47.96;97285.70;622128;228;66953;-66
2023/04/09 06:44:11;;;;;;;;;;;;;;;23.41;47.77;97291.06;619201;227;49033;-66
2023/04/09 06:46:38;;;;;;;;;;;;;;;23.40;47.68;97294.80;622486;227;65097;-66
2023/04/09 06:49:06;;;;;;;;;;;;;;;23.40;46.31;97294.80;621419;228;66589;-66
2023/04/09 06:51:33;;;;;;;;;;;;;;;23.39;46.55;97292.41;621854;227;66773;-66
2023/04/09 06:54:01;;;;;;;;;;;;;;;23.41;49.09;97291.06;622052;228;64862;-65
2023/04/09 06:56:28;;;;;;;;;;;;;;;23.39;47.47;97289.73;621643;228;64900;-66
2023/04/09 06:58:55;;;;;;;;;;;;;;;23.38;48.91;97288.11;621701;228;64624;-66
2023/04/09 07:01:25;;;;;;;;;;;;;;;23.38;45.81;97285.44;622056;228;64879;-66
2023/04/09 07:03:52;;;;;;;;;;;;;;;23.39;47.93;97287.05;614657;228;67008;-65
2023/04/09 07:06:20;;;;;;;;;;;;;;;23.38;48.64;97296.16;620778;228;66830;-66
2023/04/09 07:08:47;;;;;;;;;;;;;;;23.38;49.21;97285.44;622143;228;65060;-66
2023/04/09 07:11:15;;;;;;;;;;;;;;;23.37;45.16;97287.32;622357;228;66977;-66
2023/04/09 07:13:43;;;;;;;;;;;;;;;23.36;49.02;97283.05;622283;228;64763;-66
2023/04/09 07:16:10;;;;;;;;;;;;;;;23.37;48.71;97283.84;621025;227;63858;-66
2023/04/09 07:18:38;;;;;;;;;;;;;;;23.36;48.28;97287.62;621628;228;68052;-66
2023/04/09 07:21:05;;;;;;;;;;;;;;;23.36;48.73;97284.94;621645;228;66756;-66
2023/04/09 07:23:36;;;;;;;;;;;;;;;23.35;47.34;97286.00;621648;228;62881;-66
2023/04/09 07:26:04;;;;;;;;;;;;;;;23.35;48.48;97281.42;621645;228;64729;-65
2023/04/09 07:28:32;;;;;;;;;;;;;;;23.34;45.43;97284.41;621645;228;64559;-62
2023/04/09 07:31:01;;;;;;;;;;;;;;;23.35;47.79;97291.36;621621;228;62991;-62
2023/04/09 07:33:29;;;;;;;;;;;;;;;23.34;46.54;97289.77;621671;228;66945;-62
2023/04/09 07:35:56;;;;;;;;;;;;;;;23.33;47.83;97290.86;622117;228;66429;-62
2023/04/09 07:38:24;;;;;;;;;;;;;;;23.34;48.83;97289.77;621815;228;65231;-62
2023/04/09 07:40:51;;;;;;;;;;;;;;;23.34;48.41;97295.92;621017;227;66960;-66
2023/04/09 07:43:19;;;;;;;;;;;;;;;23.32;47.45;97292.72;621595;228;64806;-66
2023/04/09 07:45:48;;;;;;;;;;;;;;;23.34;49.75;97289.77;621618;228;62985;-65
2023/04/09 07:48:15;;;;;;;;;;;;;;;23.31;47.13;97291.12;621576;228;66906;-66
2023/04/09 07:50:44;;;;;;;;;;;;;;;23.32;48.03;97297.28;621710;228;64633;-66
2023/04/09 07:53:11;;;;;;;;;;;;;;;23.32;47.72;97297.28;621675;228;65116;-66
2023/04/09 07:55:40;;;;;;;;;;;;;;;23.31;45.27;97287.65;622084;228;66988;-66
2023/04/09 07:58:07;;;;;;;;;;;;;;;23.30;49.05;97292.22;622101;228;66838;-62
2023/04/09 08:00:35;;;;;;;;;;;;;;;23.30;48.79;97297.58;621647;228;65031;-66
2023/04/09 08:03:02;;;;;;;;;;;;;;;23.30;47.94;97302.12;621665;228;66774;-66
2023/04/09 08:05:30;;;;;;;;;;;;;;;23.29;46.82;97301.32;621723;228;66884;-66
2023/04/09 08:07:57;;;;;;;;;;;;;;;23.27;45.51;97298.11;621699;228;65031;-65
2023/04/09 08:10:25;;;;;;;;;;;;;;;23.28;48.53;97298.94;616434;228;67023;-66
2023/04/09 08:12:52;;;;;;;;;;;;;;;23.27;47.82;97300.80;621235;228;66777;-66
2023/04/09 08:15:20;;;;;;;;;;;;;;;23.27;46.21;97306.16;621978;227;65142;-66
2023/04/09 08:17:48;;;;;;;;;;;;;;;23.26;49.79;97299.20;621600;228;66954;-66
2023/04/09 08:20:15;;;;;;;;;;;;;;;23.26;48.27;97296.52;613207;227;64715;-66
2023/04/09 08:22:44;;;;;;;;;;;;;;;23.26;49.00;97293.84;621636;228;65032;-66
2023/04/09 08:25:12;;;;;;;;;;;;;;;23.26;48.60;97302.68;622010;228;64772;-66
2023/04/09 08:27:39;;;;;;;;;;;;;;;23.24;47.41;97288.77;621771;228;64562;-66
2023/04/09 08:30:07;;;;;;;;;;;;;;;23.24;48.66;97291.45;622130;228;65802;-66
2023/04/09 08:32:35;;;;;;;;;;;;;;;23.24;47.28;97290.63;621625;228;66915;-66
2023/04/09 08:35:02;;;;;;;;;;;;;;;23.24;48.89;97291.45;621642;228;66768;-66
2023/04/09 08:37:29;;;;;;;;;;;;;;;23.22;48.18;97290.92;621603;228;65163;-66
2023/04/09 08:39:57;;;;;;;;;;;;;;;23.22;48.09;97288.24;621545;228;64590;-66
2023/04/09 08:42:25;;;;;;;;;;;;;;;23.22;48.27;97287.45;621707;228;66804;-66
2023/04/09 08:44:52;;;;;;;;;;;;;;;23.21;45.34;97286.63;621657;228;64805;-62
2023/04/09 08:47:20;;;;;;;;;;;;;;;23.22;49.51;97285.56;622082;228;66878;-62
2023/04/09 08:49:49;;;;;;;;;;;;;;;23.21;48.84;97280.47;621776;228;64434;-62
2023/04/09 08:52:20;;;;;;;;;;;;;;;23.20;48.93;97279.67;621624;228;65035;-62
2023/04/09 08:54:47;;;;;;;;;;;;;;;23.20;46.35;97281.55;621676;228;71560;-62
2023/04/09 08:57:15;;;;;;;;;;;;;;;23.19;48.76;97278.08;621169;228;67060;-62
2023/04/09 08:59:42;;;;;;;;;;;;;;;23.19;49.25;97277.25;620855;228;65051;-63
2023/04/09 09:02:10;;;;;;;;;;;;;;;23.19;48.61;97277.25;616429;227;66932;-66
2023/04/09 09:04:47;;;;;;;;;;;;;;;23.17;49.43;97274.07;621836;228;66832;-66
2023/04/09 09:07:16;;;;;;;;;;;;;;;23.17;48.15;97274.87;621602;227;65193;-65
2023/04/09 09:09:53;;;;;;;;;;;;;;;23.17;49.21;97280.23;621557;227;64738;-65
2023/04/09 09:12:34;;;;;;;;;;;;;;;23.16;47.28;97275.95;621690;228;64598;-65
2023/04/09 09:15:02;;;;;;;;;;;;;;;23.16;46.19;97267.91;621571;228;65023;-65
2023/04/09 09:17:30;;;;;;;;;;;;;;;23.16;49.45;97265.23;622132;228;66244;-65
2023/04/09 09:19:57;;;;;;;;;;;;;;;23.15;48.47;97265.50;621666;228;64408;-65
2023/04/09 09:22:25;;;;;;;;;;;;;;;23.15;49.33;97262.82;621790;228;62993;-65
2023/04/09 09:24:53;;;;;;;;;;;;;;;23.13;47.44;97268.45;621872;227;64589;-65
2023/04/09 09:27:35;;;;;;;;;;;;;;;23.14;49.10;97266.59;621470;227;66282;-65
2023/04/09 09:30:05;;;;;;;;;;;;;;;23.13;47.23;97263.08;621616;228;65209;-65
2023/04/09 09:32:33;;;;;;;;;;;;;;;23.13;47.80;97270.33;621931;228;66632;-65
2023/04/09 09:35:07;;;;;;;;;;;;;;;23.12;49.47;97264.17;621994;228;66502;-65
2023/04/09 09:37:34;;;;;;;;;;;;;;;23.12;49.64;97264.17;621639;228;65026;-65
2023/04/09 09:40:03;;;;;;;;;;;;;;;23.11;49.46;97262.59;621689;228;66984;-65
2023/04/09 09:42:30;;;;;;;;;;;;;;;23.11;49.71;97253.72;621416;227;66809;-65
2023/04/09 09:44:58;;;;;;;;;;;;;;;23.09;47.20;97256.69;621917;228;62927;-65
2023/04/09 09:47:28;;;;;;;;;;;;;;;23.10;49.75;97260.97;621920;227;64696;-65
2023/04/09 09:49:55;;;;;;;;;;;;;;;23.09;48.69;97262.05;622165;228;64229;-65
2023/04/09 09:52:26;;;;;;;;;;;;;;;23.09;50.71;97256.69;622051;228;62898;-65
2023/04/09 09:54:54;;;;;;;;;;;;;;;23.09;49.50;97255.90;621232;227;65335;-65
2023/04/09 09:57:23;;;;;;;;;;;;;;;23.08;49.69;97254.28;621610;228;66685;-65
2023/04/09 09:59:52;;;;;;;;;;;;;;;23.07;50.09;97250.80;621364;227;65219;-65
2023/04/09 10:02:21;;;;;;;;;;;;;;;23.07;47.76;97261.52;621673;227;67685;-65
2023/04/09 10:04:54;;;;;;;;;;;;;;;23.07;49.84;97247.33;621756;228;66493;-65
2023/04/09 10:07:20;;;;;;;;;;;;;;;23.06;47.40;97257.25;621853;228;66592;-65
2023/04/09 10:09:49;;;;;;;;;;;;;;;23.07;47.94;97252.69;621769;227;64794;-61
2023/04/09 10:12:18;;;;;;;;;;;;;;;23.06;50.35;97251.89;617291;227;67051;-65
2023/04/09 10:14:46;;;;;;;;;;;;;;;23.06;50.51;97261.82;622159;227;65180;-65
2023/04/09 10:17:13;;;;;;;;;;;;;;;23.04;49.00;97249.47;620003;228;66842;-65
2023/04/09 10:19:45;;;;;;;;;;;;;;;23.04;47.71;97251.36;620033;228;66734;-65
2023/04/09 10:22:13;;;;;;;;;;;;;;;23.05;51.32;97252.95;620182;229;65119;-65
2023/04/09 10:24:41;;;;;;;;;;;;;;;23.04;49.62;97248.68;619935;229;66865;-65
2023/04/09 10:27:10;;;;;;;;;;;;;;;23.03;47.80;97247.09;619510;229;67066;-65
2023/04/09 10:29:38;;;;;;;;;;;;;;;23.03;50.04;97255.93;619485;229;65090;-65
2023/04/09 10:32:06;;;;;;;;;;;;;;;23.00;47.71;97245.77;619216;228;66780;-65
2023/04/09 10:34:35;;;;;;;;;;;;;;;23.02;49.77;97245.47;619463;229;67831;-65
2023/04/09 10:37:03;;;;;;;;;;;;;;;23.01;49.19;97243.88;619660;229;65065;-65
2023/04/09 10:39:31;;;;;;;;;;;;;;;23.01;52.10;97249.24;619958;229;65250;-63
2023/04/09 10:41:59;;;;;;;;;;;;;;;22.99;48.21;97236.11;619929;229;65026;-63
2023/04/09 10:44:30;;;;;;;;;;;;;;;22.99;48.25;97236.11;619502;229;64864;-63
2023/04/09 10:46:58;;;;;;;;;;;;;;;22.99;47.36;97246.83;620087;228;67298;-64
2023/04/09 10:49:29;;;;;;;;;;;;;;;22.99;46.73;97240.67;619503;228;64837;-68
2023/04/09 10:52:03;;;;;;;;;;;;;;;22.99;48.78;97240.67;618766;229;64731;-68
2023/04/09 10:54:42;;;;;;;;;;;;;;;22.97;48.98;97237.46;619855;229;67265;-65
2023/04/09 10:57:16;;;;;;;;;;;;;;;22.97;47.55;97242.81;619397;229;48494;-66
2023/04/09 10:59:54;;;;;;;;;;;;;;;22.96;47.89;97242.02;619822;228;46542;-65
2023/04/09 11:02:27;;;;;;;;;;;;;;;22.95;48.15;97232.36;620036;229;67311;-66
2023/04/09 11:05:05;;;;;;;;;;;;;;;22.94;47.37;97224.59;619178;228;66983;-65
2023/04/09 11:07:34;;;;;;;;;;;;;;;22.93;45.46;97231.83;619363;229;65054;-66
2023/04/09 11:10:01;;;;;;;;;;;;;;;22.94;47.42;97236.10;619282;229;64878;-65
2023/04/09 11:12:29;;;;;;;;;;;;;;;22.93;49.26;97229.16;619422;229;64915;-65
2023/04/09 11:14:56;;;;;;;;;;;;;;;22.92;46.86;97235.60;619417;229;65054;-66
2023/04/09 11:17:24;;;;;;;;;;;;;;;22.92;50.25;97224.88;619947;228;65116;-66
2023/04/09 11:19:52;;;;;;;;;;;;;;;22.91;49.40;97231.30;621463;228;66813;-66
2023/04/09 11:22:19;;;;;;;;;;;;;;;22.91;47.77;97235.87;613107;227;65055;-66
2023/04/09 11:24:47;;;;;;;;;;;;;;;22.91;47.33;97233.19;621629;228;67249;-66
2023/04/09 11:27:18;;;;;;;;;;;;;;;22.89;48.83;97232.66;621561;228;67375;-66
2023/04/09 11:29:44;;;;;;;;;;;;;;;22.89;48.16;97232.66;617467;228;63120;-65
2023/04/09 11:32:12;;;;;;;;;;;;;;;22.89;48.13;97240.70;621509;228;64932;-65
2023/04/09 11:34:39;;;;;;;;;;;;;;;22.87;47.10;97235.63;621724;228;66633;-66
2023/04/09 11:37:08;;;;;;;;;;;;;;;22.87;47.51;97240.99;620544;227;64879;-66
2023/04/09 11:39:39;;;;;;;;;;;;;;;22.88;49.97;97233.75;621182;228;65020;-66
2023/04/09 11:42:07;;;;;;;;;;;;;;;22.87;46.65;97240.20;621623;228;67025;-65
2023/04/09 11:44:34;;;;;;;;;;;;;;;22.86;45.44;97236.69;621403;228;65040;-65
2023/04/09 11:47:02;;;;;;;;;;;;;;;22.86;48.43;97234.02;621449;228;66801;-65
2023/04/09 11:49:30;;;;;;;;;;;;;;;22.86;45.74;97234.02;621859;227;67037;-65
2023/04/09 11:52:00;;;;;;;;;;;;;;;22.88;46.67;97233.75;621559;228;63771;-65
2023/04/09 11:54:32;;;;;;;;;;;;;;;22.88;46.70;97234.55;622021;228;65243;-66
2023/04/09 11:57:00;;;;;;;;;;;;;;;22.88;45.83;97233.75;621467;228;64799;-65
2023/04/09 11:59:28;;;;;;;;;;;;;;;22.88;48.38;97228.39;621599;228;65050;-66
2023/04/09 12:01:57;;;;;;;;;;;;;;;22.88;49.16;97223.03;621495;228;67283;-66
2023/04/09 12:04:25;;;;;;;;;;;;;;;22.88;48.44;97223.03;621493;228;66976;-65
2023/04/09 12:06:55;;;;;;;;;;;;;;;22.89;49.54;97222.77;620775;228;62944;-66
2023/04/09 12:09:22;;;;;;;;;;;;;;;22.90;46.27;97220.88;620978;227;67334;-66
2023/04/09 12:11:50;;;;;;;;;;;;;;;22.90;47.26;97221.67;622051;228;67816;-65
2023/04/09 12:14:18;;;;;;;;;;;;;;;22.90;47.45;97215.52;621932;228;65072;-66
2023/04/09 12:16:47;;;;;;;;;;;;;;;22.91;46.03;97222.47;621182;227;67269;-66
2023/04/09 12:19:15;;;;;;;;;;;;;;;22.91;46.17;97214.42;621868;228;67070;-66
2023/04/09 12:21:46;;;;;;;;;;;;;;;22.92;46.24;97208.80;621808;228;65047;-66
2023/04/09 12:24:14;;;;;;;;;;;;;;;22.93;47.55;97202.35;624055;226;66226;-66
2023/04/09 12:26:42;;;;;;;;;;;;;;;22.94;46.18;97198.58;621773;228;67083;-67
2023/04/09 12:29:10;;;;;;;;;;;;;;;22.96;45.59;97199.14;621932;228;63156;-66
2023/04/09 12:31:37;;;;;;;;;;;;;;;22.97;45.11;97199.94;622063;228;67188;-66
2023/04/09 12:34:05;;;;;;;;;;;;;;;22.99;46.10;97200.47;621154;227;66796;-66
2023/04/09 12:36:33;;;;;;;;;;;;;;;23.00;46.24;97205.56;621674;228;62902;-66
2023/04/09 12:39:00;;;;;;;;;;;;;;;23.01;44.59;97201.00;621883;228;67181;-66
2023/04/09 12:41:28;;;;;;;;;;;;;;;23.03;45.94;97196.95;621751;227;67378;-66
2023/04/09 12:43:58;;;;;;;;;;;;;;;23.04;44.32;97192.39;621557;228;62657;-66
2023/04/09 12:46:26;;;;;;;;;;;;;;;23.05;45.86;97183.26;621630;228;65010;-66
2023/04/09 12:48:53;;;;;;;;;;;;;;;23.07;46.07;97194.52;621623;228;67106;-67
2023/04/09 12:51:22;;;;;;;;;;;;;;;23.08;45.62;97190.77;621182;228;65058;-67
2023/04/09 12:53:50;;;;;;;;;;;;;;;23.10;46.30;97193.95;621456;227;67178;-66